createdAt,value
2019-05-05T00:01:52.493Z,102040.73
2019-05-05T00:04:39.126Z,102044.10
2019-05-05T00:07:08.549Z,102044.83
2019-05-05T00:09:37.943Z,102049.23
2019-05-05T00:12:18.131Z,102049.64
2019-05-05T00:14:51.596Z,102062.08
2019-05-05T00:17:25.381Z,102061.30
2019-05-05T00:19:55.027Z,102056.50
2019-05-05T00:22:24.644Z,102060.72
2019-05-05T00:25:00.234Z,102064.34
2019-05-05T00:27:29.896Z,102063.78
2019-05-05T00:29:59.279Z,102066.96
2019-05-05T00:32:28.688Z,102067.27
2019-05-05T00:34:58.120Z,102070.41
2019-05-05T00:37:27.575Z,102064.97
2019-05-05T00:39:56.964Z,102070.20
2019-05-05T00:42:26.361Z,102069.50
2019-05-05T00:44:55.871Z,102078.04
2019-05-05T00:47:26.907Z,102081.67
2019-05-05T00:49:56.461Z,102080.00
2019-05-05T00:56:07.506Z,102078.15
2019-05-05T00:58:38.577Z,102065.26
2019-05-05T01:01:25.010Z,102073.31
2019-05-05T01:03:54.681Z,102076.34
2019-05-05T01:06:28.451Z,102085.22
2019-05-05T01:08:57.957Z,102086.52
2019-05-05T01:11:27.443Z,102085.01
2019-05-05T01:13:56.869Z,102083.23
2019-05-05T01:16:27.916Z,102083.70
2019-05-05T01:19:05.505Z,102088.47
2019-05-05T01:21:35.092Z,102090.71
2019-05-05T01:24:05.230Z,102093.27
2019-05-05T01:26:35.412Z,102086.12
2019-05-05T01:29:06.705Z,102094.53
2019-05-05T01:31:36.191Z,102099.20
2019-05-05T01:34:14.925Z,102092.31
2019-05-05T01:36:45.243Z,102090.94
2019-05-05T01:39:25.737Z,102091.22
2019-05-05T01:41:56.743Z,102097.11
2019-05-05T01:44:26.163Z,102100.37
2019-05-05T01:46:56.932Z,102106.33
2019-05-05T01:49:26.446Z,102101.95
2019-05-05T01:51:55.903Z,102107.30
2019-05-05T01:54:25.726Z,102115.78
2019-05-05T01:56:56.184Z,102120.00
2019-05-05T01:59:26.531Z,102128.23
2019-05-05T02:01:56.384Z,102120.55
2019-05-05T02:04:25.829Z,102122.84
2019-05-05T02:06:55.444Z,102125.13
2019-05-05T02:09:25.216Z,102134.55
2019-05-05T02:11:57.927Z,102133.75
2019-05-05T02:14:27.399Z,102128.41
2019-05-05T02:16:56.792Z,102138.33
2019-05-05T02:19:27.218Z,102137.58
2019-05-05T02:21:57.086Z,102134.91
2019-05-05T02:24:26.604Z,102135.13
2019-05-05T02:26:56.487Z,102133.99
2019-05-05T02:29:28.077Z,102132.00
2019-05-05T02:32:16.597Z,102136.70
2019-05-05T02:34:47.745Z,102131.11
2019-05-05T02:37:17.293Z,102125.84
2019-05-05T02:39:57.682Z,102112.34
2019-05-05T02:42:18.935Z,102108.37
2019-05-05T02:44:49.055Z,102112.88
2019-05-05T02:47:25.685Z,102114.13
2019-05-05T02:49:58.895Z,102116.48
2019-05-05T02:52:28.873Z,102114.06
2019-05-05T02:54:58.709Z,102121.91
2019-05-05T02:57:28.675Z,102119.30
2019-05-05T02:59:59.770Z,102123.53
2019-05-05T03:02:31.749Z,102122.11
2019-05-05T03:05:01.521Z,102124.53
2019-05-05T03:07:31.873Z,102125.64
2019-05-05T03:10:03.849Z,102125.36
2019-05-05T03:12:36.414Z,102136.98
2019-05-05T03:15:06.800Z,102139.59
2019-05-05T03:17:36.741Z,102130.52
2019-05-05T03:20:10.172Z,102133.53
2019-05-05T03:22:39.962Z,102133.48
2019-05-05T03:25:09.470Z,102131.03
2019-05-05T03:27:39.252Z,102126.09
2019-05-05T03:30:09.000Z,102121.41
2019-05-05T03:32:38.507Z,102125.28
2019-05-05T03:35:09.844Z,102139.06
2019-05-05T03:37:44.510Z,102154.66
2019-05-05T03:40:15.508Z,102135.52
2019-05-05T03:42:49.777Z,102130.52
2019-05-05T03:45:30.720Z,102136.34
2019-05-05T03:48:00.222Z,102132.81
2019-05-05T03:50:30.068Z,102136.80
2019-05-05T03:52:59.493Z,102144.91
2019-05-05T03:55:29.029Z,102143.53
2019-05-05T03:57:58.610Z,102145.85
2019-05-05T04:00:51.971Z,102155.62
2019-05-05T04:03:21.397Z,102152.13
2019-05-05T04:05:55.635Z,102163.73
2019-05-05T04:08:25.550Z,102168.98
2019-05-05T04:10:55.635Z,102176.45
2019-05-05T04:13:25.353Z,102170.41
2019-05-05T04:16:13.622Z,102175.85
2019-05-05T04:18:44.828Z,102175.34
2019-05-05T04:21:14.576Z,102185.25
2019-05-05T04:23:44.253Z,102186.70
2019-05-05T04:26:14.337Z,102185.11
2019-05-05T04:28:43.849Z,102185.86
2019-05-05T04:31:13.632Z,102181.55
2019-05-05T04:33:44.462Z,102174.52
2019-05-05T04:36:14.557Z,102181.65
2019-05-05T04:38:44.161Z,102180.31
2019-05-05T04:41:14.146Z,102187.47
2019-05-05T04:43:44.278Z,102182.94
2019-05-05T04:46:14.207Z,102180.09
2019-05-05T04:48:45.256Z,102182.66
2019-05-05T04:51:16.342Z,102184.83
2019-05-05T04:54:03.882Z,102183.70
2019-05-05T04:56:34.294Z,102184.61
2019-05-05T04:59:04.315Z,102188.78
2019-05-05T05:01:54.771Z,102185.05
2019-05-05T05:04:34.869Z,102186.60
2019-05-05T05:07:07.666Z,102192.34
2019-05-05T05:09:37.140Z,102199.55
2019-05-05T05:12:06.560Z,102205.45
2019-05-05T05:14:36.078Z,102196.35
2019-05-05T05:17:07.641Z,102200.35
2019-05-05T05:19:37.076Z,102204.77
2019-05-05T05:22:06.479Z,102195.24
2019-05-05T05:24:35.974Z,102206.36
2019-05-05T05:27:05.420Z,102199.85
2019-05-05T05:29:34.871Z,102207.50
2019-05-05T05:32:04.383Z,102213.27
2019-05-05T05:34:34.466Z,102212.09
2019-05-05T05:37:04.369Z,102208.11
2019-05-05T05:39:41.086Z,102210.77
2019-05-05T05:42:10.499Z,102213.16
2019-05-05T05:44:41.566Z,102213.14
2019-05-05T05:47:15.466Z,102219.80
2019-05-05T05:49:46.522Z,102213.53
2019-05-05T05:52:19.316Z,102222.34
2019-05-05T05:54:47.702Z,102235.51
2019-05-05T05:57:17.232Z,102246.70
2019-05-05T05:59:46.665Z,102262.77
2019-05-05T06:02:16.103Z,102267.59
2019-05-05T06:04:45.617Z,102276.77
2019-05-05T06:07:15.421Z,102268.64
2019-05-05T06:09:44.824Z,102257.93
2019-05-05T06:12:14.360Z,102255.42
2019-05-05T06:14:44.670Z,102257.89
2019-05-05T06:17:14.434Z,102256.09
2019-05-05T06:19:44.592Z,102261.07
2019-05-05T06:22:27.419Z,102262.38
2019-05-05T06:24:45.379Z,102260.63
2019-05-05T06:27:14.789Z,102256.31
2019-05-05T06:29:44.230Z,102249.52
2019-05-05T06:32:15.649Z,102265.98
2019-05-05T06:34:45.083Z,102264.88
2019-05-05T06:37:14.681Z,102268.77
2019-05-05T06:39:44.766Z,102268.36
2019-05-05T06:42:34.155Z,102275.65
2019-05-05T06:45:05.170Z,102276.32
2019-05-05T06:47:36.181Z,102276.94
2019-05-05T06:50:07.979Z,102274.56
2019-05-05T06:52:44.257Z,102277.90
2019-05-05T06:55:08.683Z,102287.83
2019-05-05T06:57:38.105Z,102288.00
2019-05-05T07:00:07.671Z,102287.94
2019-05-05T07:02:37.147Z,102288.38
2019-05-05T07:05:06.723Z,102287.02
2019-05-05T07:07:36.146Z,102286.23
2019-05-05T07:10:07.153Z,102281.80
2019-05-05T07:12:38.145Z,102289.31
2019-05-05T07:15:14.669Z,102287.23
2019-05-05T07:17:44.343Z,102275.97
2019-05-05T07:20:14.685Z,102280.10
2019-05-05T07:22:58.467Z,102274.78
2019-05-05T07:25:15.490Z,102283.04
2019-05-05T07:27:44.920Z,102280.44
2019-05-05T07:30:14.679Z,102282.58
2019-05-05T07:32:44.328Z,102278.11
2019-05-05T07:35:31.906Z,102278.00
2019-05-05T07:38:01.396Z,102280.22
2019-05-05T07:40:30.802Z,102277.25
2019-05-05T07:43:00.252Z,102279.20
2019-05-05T07:45:29.679Z,102275.89
2019-05-05T07:47:59.101Z,102271.86
2019-05-05T07:50:32.526Z,102282.58
2019-05-05T07:53:11.506Z,102275.00
2019-05-05T07:55:31.047Z,102278.59
2019-05-05T07:58:00.547Z,102276.99
2019-05-05T08:00:30.143Z,102277.87
2019-05-05T08:02:59.630Z,102288.95
2019-05-05T08:05:29.120Z,102293.22
2019-05-05T08:07:58.554Z,102289.77
2019-05-05T08:10:28.045Z,102283.29
2019-05-05T08:12:57.488Z,102277.97
2019-05-05T08:15:28.189Z,102283.70
2019-05-05T08:17:59.300Z,102269.95
2019-05-05T08:20:33.879Z,102269.01
2019-05-05T08:23:04.273Z,102273.42
2019-05-05T08:25:45.415Z,102280.83
2019-05-05T08:28:19.342Z,102278.84
2019-05-05T08:30:50.496Z,102296.77
2019-05-05T08:33:19.998Z,102307.66
2019-05-05T08:35:49.515Z,102311.69
2019-05-05T08:38:18.954Z,102305.30
2019-05-05T08:40:48.452Z,102324.54
2019-05-05T08:43:17.964Z,102344.39
2019-05-05T08:45:47.461Z,102349.03
2019-05-05T08:48:16.969Z,102326.89
2019-05-05T08:50:46.410Z,102328.30
2019-05-05T08:53:15.815Z,102328.97
2019-05-05T08:55:45.326Z,102324.13
2019-05-05T08:58:15.193Z,102319.34
2019-05-05T09:00:44.750Z,102322.72
2019-05-05T09:03:14.515Z,102319.70
2019-05-05T09:05:44.013Z,102320.20
2019-05-05T09:08:16.449Z,102311.09
2019-05-05T09:10:45.954Z,102312.38
2019-05-05T09:13:15.613Z,102310.77
2019-05-05T09:15:45.392Z,102305.05
2019-05-05T09:18:14.827Z,102303.56
2019-05-05T09:20:44.801Z,102297.66
2019-05-05T09:23:14.870Z,102295.33
2019-05-05T09:25:46.152Z,102288.08
2019-05-05T09:28:26.319Z,102283.53
2019-05-05T09:30:55.819Z,102289.25
2019-05-05T09:33:25.646Z,102285.56
2019-05-05T09:35:55.135Z,102284.98
2019-05-05T09:38:24.631Z,102296.91
2019-05-05T09:40:54.578Z,102287.27
2019-05-05T09:43:24.219Z,102294.28
2019-05-05T09:45:54.555Z,102288.49
2019-05-05T09:48:24.389Z,102301.17
2019-05-05T09:50:54.185Z,102313.36
2019-05-05T09:53:27.045Z,102338.56
2019-05-05T09:55:54.926Z,102349.13
2019-05-05T09:58:24.446Z,102342.95
2019-05-05T10:00:54.702Z,102334.90
2019-05-05T10:03:24.326Z,102323.59
2019-05-05T10:05:54.161Z,102321.53
2019-05-05T10:08:23.762Z,102316.70
2019-05-05T10:10:54.747Z,102317.03
2019-05-05T10:13:24.315Z,102321.42
2019-05-05T10:15:54.909Z,102317.38
2019-05-05T10:18:25.551Z,102325.48
2019-05-05T10:20:55.153Z,102317.59
2019-05-05T10:23:26.304Z,102321.33
2019-05-05T10:25:57.437Z,102321.13
2019-05-05T10:28:28.905Z,102321.08
2019-05-05T10:31:00.071Z,102314.87
2019-05-05T10:33:29.562Z,102311.09
2019-05-05T10:35:58.985Z,102317.34
2019-05-05T10:38:28.416Z,102315.14
2019-05-05T10:41:17.253Z,102313.84
2019-05-05T10:43:47.076Z,102305.17
2019-05-05T10:46:16.526Z,102297.61
2019-05-05T10:48:45.951Z,102294.94
2019-05-05T10:51:15.385Z,102287.28
2019-05-05T10:53:44.895Z,102299.19
2019-05-05T10:56:14.323Z,102300.20
2019-05-05T10:58:44.205Z,102301.83
2019-05-05T11:01:14.539Z,102298.80
2019-05-05T11:03:44.783Z,102294.92
2019-05-05T11:06:14.538Z,102301.74
2019-05-05T11:08:45.161Z,102300.28
2019-05-05T11:11:14.782Z,102300.89
2019-05-05T11:13:47.010Z,102301.23
2019-05-05T11:16:16.453Z,102317.59
2019-05-05T11:18:46.019Z,102314.06
2019-05-05T11:21:15.572Z,102318.74
2019-05-05T11:23:45.077Z,102315.13
2019-05-05T11:26:14.579Z,102303.02
2019-05-05T11:28:44.628Z,102298.70
2019-05-05T11:31:14.329Z,102299.50
2019-05-05T11:33:48.236Z,102297.27
2019-05-05T11:36:19.386Z,102300.00
2019-05-05T11:38:48.804Z,102300.05
2019-05-05T11:41:18.242Z,102299.44
2019-05-05T11:43:47.677Z,102309.34
2019-05-05T11:46:17.127Z,102321.91
2019-05-05T11:48:46.556Z,102310.91
2019-05-05T11:51:16.051Z,102316.94
2019-05-05T11:53:45.683Z,102311.77
2019-05-05T11:56:15.089Z,102323.91
2019-05-05T11:58:44.559Z,102326.44
2019-05-05T12:01:14.168Z,102336.84
2019-05-05T12:03:44.435Z,102352.63
2019-05-05T12:06:14.830Z,102364.15
2019-05-05T12:08:45.944Z,102358.24
2019-05-05T12:11:15.711Z,102359.88
2019-05-05T12:13:45.275Z,102362.03
2019-05-05T12:16:16.363Z,102350.12
2019-05-05T12:18:45.855Z,102341.64
2019-05-05T12:21:15.309Z,102332.46
2019-05-05T12:23:44.729Z,102327.89
2019-05-05T12:26:34.790Z,102315.95
2019-05-05T12:29:06.175Z,102314.61
2019-05-05T12:31:37.271Z,102307.27
2019-05-05T12:34:06.891Z,102305.98
2019-05-05T12:36:36.301Z,102314.44
2019-05-05T12:39:09.198Z,102317.55
2019-05-05T12:41:38.610Z,102322.70
2019-05-05T12:44:09.800Z,102313.80
2019-05-05T12:46:49.875Z,102310.09
2019-05-05T12:49:22.515Z,102316.91
2019-05-05T12:51:50.637Z,102312.61
2019-05-05T12:54:20.084Z,102319.99
2019-05-05T12:56:49.563Z,102317.27
2019-05-05T12:59:20.967Z,102322.70
2019-05-05T13:01:50.620Z,102312.77
2019-05-05T13:04:20.039Z,102302.02
2019-05-05T13:06:49.882Z,102310.36
2019-05-05T13:09:19.649Z,102312.38
2019-05-05T13:11:49.091Z,102316.37
2019-05-05T13:14:18.515Z,102316.80
2019-05-05T13:16:52.965Z,102324.55
2019-05-05T13:19:24.221Z,102320.09
2019-05-05T13:22:11.861Z,102320.44
2019-05-05T13:24:43.620Z,102318.52
2019-05-05T13:27:19.356Z,102318.55
2019-05-05T13:29:46.128Z,102319.96
2019-05-05T13:32:15.625Z,102324.49
2019-05-05T13:34:45.039Z,102324.86
2019-05-05T13:37:14.494Z,102328.55
2019-05-05T13:39:44.561Z,102329.26
2019-05-05T13:42:14.565Z,102330.94
2019-05-05T13:45:00.600Z,102330.88
2019-05-05T13:47:30.085Z,102336.67
2019-05-05T13:50:17.563Z,102336.14
2019-05-05T13:52:47.603Z,102329.89
2019-05-05T13:55:17.587Z,102331.07
2019-05-05T13:57:47.024Z,102328.19
2019-05-05T14:00:19.116Z,102314.52
2019-05-05T14:02:48.551Z,102319.25
2019-05-05T14:05:18.117Z,102326.11
2019-05-05T14:07:47.565Z,102327.64
2019-05-05T14:10:17.230Z,102328.75
2019-05-05T14:12:46.652Z,102322.22
2019-05-05T14:15:23.474Z,102331.18
2019-05-05T14:17:54.348Z,102327.44
2019-05-05T14:20:24.111Z,102330.72
2019-05-05T14:22:54.326Z,102334.28
2019-05-05T14:25:25.936Z,102330.17
2019-05-05T14:27:55.366Z,102326.33
2019-05-05T14:30:43.591Z,102332.41
2019-05-05T14:33:23.930Z,102324.18
2019-05-05T14:36:14.364Z,102325.73
2019-05-05T14:38:49.521Z,102324.19
2019-05-05T14:41:19.264Z,102316.83
2019-05-05T14:43:48.685Z,102312.98
2019-05-05T14:46:18.097Z,102310.91
2019-05-05T14:48:47.610Z,102312.95
2019-05-05T14:51:17.094Z,102328.05
2019-05-05T14:53:47.344Z,102325.09
2019-05-05T14:56:17.043Z,102323.98
2019-05-05T14:58:46.484Z,102324.87
2019-05-05T15:01:15.898Z,102319.96
2019-05-05T15:03:45.432Z,102328.78
2019-05-05T15:06:18.004Z,102330.13
2019-05-05T15:08:55.453Z,102342.70
2019-05-05T15:11:33.850Z,102347.31
2019-05-05T15:14:06.492Z,102355.41
2019-05-05T15:16:34.798Z,102361.09
2019-05-05T15:19:04.349Z,102368.03
2019-05-05T15:21:34.044Z,102355.19
2019-05-05T15:24:03.616Z,102358.30
2019-05-05T15:26:34.427Z,102359.66
2019-05-05T15:29:04.104Z,102368.51
2019-05-05T15:31:34.187Z,102370.86
2019-05-05T15:34:04.235Z,102372.22
2019-05-05T15:36:34.001Z,102370.16
2019-05-05T15:39:04.514Z,102377.62
2019-05-05T15:41:34.212Z,102375.96
2019-05-05T15:44:03.810Z,102373.80
2019-05-05T15:46:33.845Z,102378.08
2019-05-05T15:49:05.009Z,102378.89
2019-05-05T15:51:34.463Z,102380.14
2019-05-05T15:54:04.083Z,102382.91
2019-05-05T15:56:34.063Z,102373.98
2019-05-05T15:59:03.849Z,102377.41
2019-05-05T16:01:34.545Z,102376.66
2019-05-05T16:04:04.151Z,102379.13
2019-05-05T16:06:34.474Z,102381.66
2019-05-05T16:09:23.846Z,102382.03
2019-05-05T16:11:54.537Z,102379.30
2019-05-05T16:14:24.819Z,102390.42
2019-05-05T16:17:07.906Z,102381.58
2019-05-05T16:19:46.223Z,102378.29
2019-05-05T16:22:20.576Z,102381.33
2019-05-05T16:25:07.710Z,102370.79
2019-05-05T16:27:37.153Z,102376.62
2019-05-05T16:30:09.956Z,102372.65
2019-05-05T16:32:39.554Z,102366.56
2019-05-05T16:35:10.696Z,102367.61
2019-05-05T16:37:40.200Z,102372.63
2019-05-05T16:40:10.908Z,102377.95
2019-05-05T16:42:40.469Z,102371.89
2019-05-05T16:45:10.292Z,102374.89
2019-05-05T16:47:39.735Z,102377.93
2019-05-05T16:50:10.105Z,102384.62
2019-05-05T16:52:41.200Z,102382.61
2019-05-05T16:55:14.082Z,102379.17
2019-05-05T16:57:43.805Z,102380.47
2019-05-05T17:00:13.734Z,102380.81
2019-05-05T17:02:44.428Z,102373.21
2019-05-05T17:05:14.304Z,102367.32
2019-05-05T17:07:43.709Z,102369.97
2019-05-05T17:10:14.364Z,102367.27
2019-05-05T17:12:44.338Z,102368.31
2019-05-05T17:15:28.515Z,102369.35
2019-05-05T17:17:59.599Z,102369.72
2019-05-05T17:20:45.497Z,102366.13
2019-05-05T17:23:15.579Z,102363.62
2019-05-05T17:25:45.340Z,102361.05
2019-05-05T17:28:14.753Z,102361.02
2019-05-05T17:30:44.181Z,102358.27
2019-05-05T17:33:14.468Z,102362.78
2019-05-05T17:35:44.058Z,102361.08
2019-05-05T17:38:15.141Z,102349.28
2019-05-05T17:40:46.208Z,102351.46
2019-05-05T17:43:25.084Z,102351.79
2019-05-05T17:45:58.928Z,102357.84
2019-05-05T17:48:35.841Z,102350.81
2019-05-05T17:51:07.395Z,102354.03
2019-05-05T17:53:38.461Z,102350.88
2019-05-05T17:56:14.153Z,102357.78
2019-05-05T17:58:44.495Z,102357.45
2019-05-05T18:01:15.427Z,102357.67
2019-05-05T18:03:45.202Z,102359.71
2019-05-05T18:06:23.633Z,102358.84
2019-05-05T18:09:00.579Z,102358.60
2019-05-05T18:11:35.174Z,102369.36
2019-05-05T18:14:12.293Z,102358.49
2019-05-05T18:16:41.746Z,102366.48
2019-05-05T18:19:11.161Z,102370.38
2019-05-05T18:21:40.586Z,102379.84
2019-05-05T18:24:10.211Z,102383.13
2019-05-05T18:26:39.624Z,102372.20
2019-05-05T18:29:09.047Z,102373.48
2019-05-05T18:31:38.682Z,102374.35
2019-05-05T18:34:08.177Z,102374.05
2019-05-05T18:36:37.624Z,102372.86
2019-05-05T18:39:08.372Z,102366.92
2019-05-05T18:41:48.239Z,102367.61
2019-05-05T18:44:24.059Z,102370.56
2019-05-05T18:47:14.619Z,102370.91
2019-05-05T18:49:42.290Z,102369.97
2019-05-05T18:52:13.713Z,102372.31
2019-05-05T18:54:43.593Z,102375.78
2019-05-05T18:57:13.718Z,102378.66
2019-05-05T18:59:44.771Z,102392.52
2019-05-05T19:02:32.214Z,102376.59
2019-05-05T19:05:12.248Z,102385.41
2019-05-05T19:07:55.501Z,102389.85
2019-05-05T19:10:19.987Z,102386.80
2019-05-05T19:12:50.989Z,102389.63
2019-05-05T19:15:20.671Z,102393.17
2019-05-05T19:17:50.098Z,102387.91
2019-05-05T19:20:21.361Z,102390.89
2019-05-05T19:22:54.205Z,102394.97
2019-05-05T19:25:24.186Z,102393.67
2019-05-05T19:27:55.911Z,102388.90
2019-05-05T19:30:25.785Z,102404.28
2019-05-05T19:32:55.478Z,102401.94
2019-05-05T19:35:40.199Z,102404.06
2019-05-05T19:37:56.177Z,102402.52
2019-05-05T19:40:25.631Z,102402.97
2019-05-05T19:42:55.078Z,102397.30
2019-05-05T19:45:26.738Z,102403.90
2019-05-05T19:47:56.348Z,102407.06
2019-05-05T19:50:30.384Z,102410.11
2019-05-05T19:52:59.786Z,102400.25
2019-05-05T19:55:29.194Z,102407.68
2019-05-05T19:57:58.648Z,102404.62
2019-05-05T20:00:28.115Z,102410.23
2019-05-05T20:03:04.344Z,102405.13
2019-05-05T20:05:28.793Z,102405.14
2019-05-05T20:07:58.436Z,102412.25
2019-05-05T20:10:27.859Z,102411.94
2019-05-05T20:12:57.264Z,102402.54
2019-05-05T20:15:28.332Z,102404.58
2019-05-05T20:17:57.774Z,102411.38
2019-05-05T20:20:27.177Z,102411.94
2019-05-05T20:22:56.598Z,102415.02
2019-05-05T20:25:26.345Z,102412.38
2019-05-05T20:27:56.089Z,102410.05
2019-05-05T20:30:25.722Z,102408.38
2019-05-05T20:32:56.902Z,102404.56
2019-05-05T20:35:27.979Z,102405.36
2019-05-05T20:38:04.764Z,102405.41
2019-05-05T20:40:38.267Z,102407.75
2019-05-05T20:43:07.668Z,102416.21
2019-05-05T20:45:37.402Z,102417.75
2019-05-05T20:48:06.874Z,102414.38
2019-05-05T20:50:36.431Z,102414.31
2019-05-05T20:53:06.077Z,102416.58
2019-05-05T20:55:35.560Z,102418.18
2019-05-05T20:58:05.146Z,102411.60
2019-05-05T21:00:34.923Z,102412.02
2019-05-05T21:03:04.940Z,102403.23
2019-05-05T21:05:34.726Z,102395.21
2019-05-05T21:08:04.787Z,102394.23
2019-05-05T21:10:34.849Z,102384.67
2019-05-05T21:13:04.478Z,102379.72
2019-05-05T21:15:34.244Z,102379.09
2019-05-05T21:18:05.053Z,102371.15
2019-05-05T21:20:34.937Z,102373.63
2019-05-05T21:23:06.149Z,102371.11
2019-05-05T21:25:37.564Z,102371.50
2019-05-05T21:28:06.945Z,102371.13
2019-05-05T21:30:36.556Z,102372.16
2019-05-05T21:33:06.424Z,102376.42
2019-05-05T21:35:35.855Z,102377.89
2019-05-05T21:38:05.406Z,102373.99
2019-05-05T21:40:34.987Z,102372.53
2019-05-05T21:43:05.158Z,102379.52
2019-05-05T21:45:35.049Z,102384.86
2019-05-05T21:48:04.650Z,102383.06
2019-05-05T21:50:41.729Z,102385.81
2019-05-05T21:53:15.579Z,102381.30
2019-05-05T21:56:04.724Z,102382.82
2019-05-05T21:58:38.745Z,102382.98
2019-05-05T22:01:11.015Z,102388.32
2019-05-05T22:03:40.788Z,102391.40
2019-05-05T22:06:10.286Z,102387.02
2019-05-05T22:08:39.765Z,102386.39
2019-05-05T22:11:09.256Z,102391.12
2019-05-05T22:13:38.697Z,102394.10
2019-05-05T22:16:08.093Z,102395.53
2019-05-05T22:18:37.528Z,102401.55
2019-05-05T22:21:11.411Z,102403.78
2019-05-05T22:23:43.923Z,102390.23
2019-05-05T22:26:14.604Z,102381.58
2019-05-05T22:28:44.626Z,102381.85
2019-05-05T22:31:14.311Z,102396.80
2019-05-05T22:33:44.730Z,102394.70
2019-05-05T22:36:14.248Z,102398.48
2019-05-05T22:38:44.591Z,102399.42
2019-05-05T22:41:15.905Z,102393.97
2019-05-05T22:44:05.210Z,102398.27
2019-05-05T22:46:35.084Z,102393.30
2019-05-05T22:49:04.864Z,102388.58
2019-05-05T22:51:34.419Z,102387.83
2019-05-05T22:54:05.365Z,102395.74
2019-05-05T22:56:34.785Z,102387.83
2019-05-05T22:59:05.150Z,102392.78
2019-05-05T23:01:34.654Z,102393.86
2019-05-05T23:04:24.052Z,102387.73
2019-05-05T23:06:55.249Z,102384.32
2019-05-05T23:09:24.657Z,102385.06
2019-05-05T23:11:54.576Z,102375.67
2019-05-05T23:14:30.186Z,102374.52
2019-05-05T23:17:21.398Z,102378.72
2019-05-05T23:19:53.911Z,102383.30
2019-05-05T23:22:28.003Z,102386.30
2019-05-05T23:25:10.974Z,102378.06
2019-05-05T23:27:50.379Z,102378.20
2019-05-05T23:30:23.801Z,102380.27
2019-05-05T23:32:54.799Z,102379.55
2019-05-05T23:35:25.004Z,102375.93
2019-05-05T23:37:55.261Z,102375.35
2019-05-05T23:40:27.106Z,102378.72
2019-05-05T23:42:56.556Z,102372.41
2019-05-05T23:45:25.957Z,102381.78
2019-05-05T23:47:55.387Z,102384.44
2019-05-05T23:50:25.189Z,102400.22
2019-05-05T23:52:54.874Z,102385.25
2019-05-05T23:55:24.477Z,102378.23
2019-05-05T23:57:54.582Z,102376.83
